Time;durP1;ratioP1;P1;durP2;ratioP2;P2;SDS_P1;SDS_P2;PMS_P1;PMS_P2;Temp;Humidity;BMP_temperature;BMP_pressure;BME280_temperature;BME280_humidity;BME280_pressure;Samples;Min_cycle;Max_cycle;Signal;HPM_P1;HPM_P2
2023/01/31 00:01:25;;;;;;;;;;;;;;;;;;;;;
2023/01/31 00:05:16;;;;;;;;;;;;;;;;;;;;;
2023/01/31 00:08:01;;;;;;;21.80;6.60;;;;;;;3.81;72.35;99561.63;110926;1261;21973;-81
2023/01/31 00:10:46;;;;;;;17.20;5.80;;;;;;;3.83;72.33;99564.50;110941;1261;21989;-81
2023/01/31 00:14:09;;;;;;;24.90;8.30;;;;;;;3.85;72.16;99568.77;110822;1261;21986;-81
2023/01/31 00:17:03;;;;;;;21.90;7.10;;;;;;;3.84;72.18;99571.03;110722;1261;22212;-81
2023/01/31 00:20:36;;;;;;;19.20;6.50;;;;;;;3.86;72.09;99572.53;110740;1261;22277;-82
2023/01/31 00:24:15;;;;;;;20.30;7.40;;;;;;;3.85;72.06;99579.95;110705;1262;22211;-82
2023/01/31 00:27:07;;;;;;;18.00;7.20;;;;;;;3.85;71.98;99585.45;110749;1259;21977;-82
2023/01/31 00:30:33;;;;;;;;;;;;;;;;;;;;;
2023/01/31 00:33:33;;;;;;;15.10;6.20;;;;;;;3.84;71.77;99590.14;110232;1266;22420;-80
2023/01/31 00:36:34;;;;;;;16.60;6.50;;;;;;;3.87;71.68;99597.98;110164;1266;22050;-80
2023/01/31 00:40:17;;;;;;;21.70;6.70;;;;;;;3.85;71.55;99606.30;110254;1267;23612;-80
2023/01/31 00:43:28;;;;;;;22.40;7.10;;;;;;;3.83;71.38;99610.80;110291;1263;23629;-81
2023/01/31 00:46:50;;;;;;;20.60;6.50;;;;;;;3.81;71.28;99610.15;110272;1264;21987;-80
2023/01/31 00:50:03;;;;;;;14.40;6.10;;;;;;;3.81;71.23;99623.23;110048;1267;23751;-80
2023/01/31 00:53:08;;;;;;;20.60;5.40;;;;;;;3.81;71.20;99624.97;110514;1262;21963;-80
2023/01/31 00:56:37;;;;;;;;;;;;;;;;;;;;;
2023/01/31 00:59:30;;;;;;;13.00;5.50;;;;;;;3.80;70.92;99628.77;110802;1262;22983;-82
2023/01/31 01:02:45;;;;;;;19.30;6.00;;;;;;;3.81;70.79;99633.92;110731;1258;21972;-80
2023/01/31 01:05:46;;;;;;;16.30;5.30;;;;;;;3.80;70.70;99641.52;110797;1261;21989;-80
2023/01/31 01:08:49;;;;;;;17.20;6.30;;;;;;;3.80;70.53;99640.14;110938;1258;22267;-81
2023/01/31 01:12:00;;;;;;;15.50;5.20;;;;;;;3.81;70.37;99639.09;111016;1257;22932;-80
2023/01/31 01:18:22;;;;;;;15.50;5.40;;;;;;;3.77;70.10;99638.14;111188;1257;21976;-80
2023/01/31 01:20:53;;;;;;;17.50;5.20;;;;;;;3.77;69.89;99639.87;111099;1257;22061;-80
2023/01/31 01:24:05;;;;;;;18.50;6.50;;;;;;;3.75;69.78;99643.86;111007;1257;21974;-80
2023/01/31 01:26:58;;;;;;;;;;;;;;;3.72;69.67;99643.23;110943;1254;23024;-81
2023/01/31 01:29:40;;;;;;;17.60;5.80;;;;;;;3.64;69.73;99644.25;111122;1254;21975;-80
2023/01/31 01:32:45;;;;;;;15.60;4.80;;;;;;;3.63;69.54;99644.78;111054;1254;21934;-79
2023/01/31 01:36:32;;;;;;;18.00;5.60;;;;;;;3.65;69.38;99646.65;110513;1262;21985;-79
2023/01/31 01:40:08;;;;;;;15.30;5.60;;;;;;;3.66;69.20;99650.24;110872;1261;21971;-80
2023/01/31 01:43:12;;;;;;;11.70;4.40;;;;;;;3.66;69.07;99651.09;110136;1266;21973;-80
2023/01/31 01:45:57;;;;;;;12.60;4.40;;;;;;;3.68;68.79;99655.88;110252;1266;23743;-78
2023/01/31 01:49:37;;;;;;;15.90;4.40;;;;;;;3.70;68.60;99664.80;110229;1266;22059;-80
2023/01/31 01:52:21;;;;;;;12.50;3.80;;;;;;;3.69;68.24;99668.25;109713;1271;21997;-79
2023/01/31 01:55:40;;;;;;;12.30;4.30;;;;;;;3.66;67.92;99674.85;110035;1268;23574;-78
2023/01/31 01:58:49;;;;;;;16.90;4.60;;;;;;;3.64;67.90;99676.95;109271;1275;21979;-80
2023/01/31 02:01:56;;;;;;;;;;;;;;;;;;;;;
2023/01/31 02:05:01;;;;;;;15.10;4.40;;;;;;;3.63;67.52;99678.70;108782;1280;21996;-82
2023/01/31 02:11:13;;;;;;;15.90;5.10;;;;;;;3.63;67.11;99684.70;108555;1286;23056;-83
2023/01/31 02:14:38;;;;;;;16.90;4.10;;;;;;;3.64;67.14;99687.11;108211;1292;22008;-81
2023/01/31 02:17:33;;;;;;;9.30;3.70;;;;;;;3.63;66.58;99688.33;107939;1292;21994;-81
2023/01/31 02:20:47;;;;;;;18.40;4.30;;;;;;;3.60;66.74;99695.79;108343;1285;22083;-81
2023/01/31 02:24:43;;;;;;;16.10;4.20;;;;;;;3.57;66.63;99705.14;108708;1285;22307;-81
2023/01/31 02:27:14;;;;;;;19.10;3.60;;;;;;;3.51;66.48;99710.05;108398;1289;24344;-81
2023/01/31 02:30:12;;;;;;;11.20;3.50;;;;;;;3.53;66.38;99718.30;108694;1285;23828;-81
2023/01/31 02:32:52;;;;;;;13.50;3.40;;;;;;;3.54;66.24;99714.31;108964;1279;21967;-81
2023/01/31 02:35:56;;;;;;;18.40;5.00;;;;;;;3.55;66.12;99719.64;109116;1279;23046;-79
2023/01/31 02:39:02;;;;;;;10.90;4.30;;;;;;;3.55;65.97;99721.52;108839;1284;22014;-81
2023/01/31 02:42:48;;;;;;;15.00;4.10;;;;;;;3.55;65.78;99724.79;108759;1284;23874;-81
2023/01/31 02:45:51;;;;;;;12.70;3.10;;;;;;;3.54;65.75;99730.98;108265;1290;22778;-80
2023/01/31 02:48:53;;;;;;;;;;;;;;;;;;;;;
2023/01/31 02:52:46;;;;;;;13.40;3.60;;;;;;;3.52;65.55;99741.52;108754;1286;22511;-81
2023/01/31 02:59:30;;;;;;;12.40;3.90;;;;;;;3.50;65.51;99748.61;108745;1286;21994;-81
2023/01/31 03:02:55;;;;;;;13.40;4.20;;;;;;;3.47;65.33;99756.24;108576;1282;22012;-81
2023/01/31 03:06:28;;;;;;;11.60;3.70;;;;;;;3.42;65.27;99760.82;109315;1275;22079;-81
2023/01/31 03:09:20;;;;;;;18.20;4.40;;;;;;;3.35;65.26;99769.36;109127;1277;23039;-80
2023/01/31 03:12:33;;;;;;;;;;;;;;;;;;;;;
2023/01/31 03:19:35;;;;;;;8.80;3.40;;;;;;;3.21;65.04;99789.38;109197;1271;23611;-80
2023/01/31 03:22:37;;;;;;;10.40;3.00;;;;;;;3.17;65.07;99798.90;109594;1268;22841;-79
2023/01/31 03:25:26;;;;;;;21.00;4.20;;;;;;;3.18;65.13;99808.00;110271;1268;21987;-80
2023/01/31 03:28:35;;;;;;;11.80;2.90;;;;;;;3.21;64.97;99811.73;110300;1262;23029;-81
2023/01/31 03:31:29;;;;;;;12.40;3.90;;;;;;;3.20;64.89;99813.83;110593;1265;23041;-80
2023/01/31 03:34:51;;;;;;;;;;;;;;;;;;;;;
2023/01/31 03:37:54;;;;;;;12.00;3.00;;;;;;;3.17;64.77;99824.68;110604;1257;23046;-81
2023/01/31 03:41:18;;;;;;;11.00;3.10;;;;;;;3.18;64.69;99829.84;110604;1251;21988;-79
2023/01/31 03:45:04;;;;;;;7.10;2.70;;;;;;;3.21;64.91;99833.73;109786;1270;24312;-81
2023/01/31 03:47:47;;;;;;;11.70;3.70;;;;;;;3.32;64.79;99836.66;109434;1275;21973;-82
2023/01/31 03:50:51;;;;;;;15.00;4.00;;;;;;;3.41;64.63;99843.56;109463;1275;22126;-81
2023/01/31 03:53:51;;;;;;;13.00;4.20;;;;;;;3.44;64.33;99850.23;109341;1274;22002;-80
2023/01/31 03:56:57;;;;;;;8.80;3.60;;;;;;;3.39;63.95;99855.45;109457;1271;22286;-80
2023/01/31 03:59:45;;;;;;;17.10;4.80;;;;;;;3.35;63.77;99859.66;109576;1271;21988;-81
2023/01/31 04:02:47;;;;;;;9.00;3.10;;;;;;;3.31;63.65;99863.00;109357;1275;21992;-81
2023/01/31 04:05:58;;;;;;;11.70;4.30;;;;;;;3.28;63.54;99866.66;109477;1275;21985;-82
2023/01/31 04:08:52;;;;;;;11.50;3.80;;;;;;;3.24;63.57;99870.32;109315;1275;22007;-81
2023/01/31 04:11:47;;;;;;;13.50;4.20;;;;;;;3.23;63.55;99880.14;109346;1275;22017;-83
2023/01/31 04:14:41;;;;;;;14.60;4.30;;;;;;;3.25;63.59;99883.71;109641;1270;22753;-80
2023/01/31 04:17:29;;;;;;;12.80;2.70;;;;;;;3.26;63.54;99890.41;109791;1270;22013;-81
2023/01/31 04:20:28;;;;;;;;;;;;;;;;;;;;;
2023/01/31 04:23:10;;;;;;;15.10;4.50;;;;;;;3.23;63.44;99894.23;110950;1260;23720;-81
2023/01/31 04:25:56;;;;;;;14.10;3.60;;;;;;;3.23;63.41;99898.89;110811;1257;23033;-79
2023/01/31 04:28:37;;;;;;;14.90;3.90;;;;;;;3.23;63.28;99898.71;110905;1260;22010;-80
2023/01/31 04:31:26;;;;;;;11.30;3.90;;;;;;;3.19;63.21;99901.36;110974;1260;21974;-78
2023/01/31 04:34:27;;;;;;;13.50;3.60;;;;;;;3.16;63.19;99908.96;110798;1260;21974;-81
2023/01/31 04:37:15;;;;;;;11.70;3.20;;;;;;;3.13;63.23;99908.66;110850;1260;21986;-80
2023/01/31 04:39:50;;;;;;;13.00;3.90;;;;;;;3.13;63.26;99908.48;110793;1260;22433;-80
2023/01/31 04:42:21;;;;;;;9.20;3.40;;;;;;;3.13;63.33;99911.58;110609;1260;21971;-80
2023/01/31 04:44:58;;;;;;;11.20;4.00;;;;;;;3.14;63.35;99916.71;110992;1260;23066;-80
2023/01/31 04:47:30;;;;;;;13.00;4.10;;;;;;;3.14;63.18;99917.40;110724;1260;21993;-79
2023/01/31 04:50:03;;;;;;;16.20;4.20;;;;;;;3.15;63.24;99917.73;110485;1265;22000;-80
2023/01/31 04:52:42;;;;;;;8.70;3.60;;;;;;;3.15;63.18;99918.43;110190;1265;23631;-80
2023/01/31 04:55:25;;;;;;;12.10;3.80;;;;;;;3.14;63.13;99921.55;110214;1265;21973;-80
2023/01/31 04:58:04;;;;;;;13.70;4.80;;;;;;;3.15;63.26;99922.89;109818;1269;22024;-81
2023/01/31 05:01:12;;;;;;;13.50;3.70;;;;;;;3.15;63.21;99925.14;110323;1264;22311;-81
2023/01/31 05:03:45;;;;;;;13.30;3.80;;;;;;;3.10;63.11;99923.66;110398;1261;21971;-82
2023/01/31 05:06:23;;;;;;;11.50;3.50;;;;;;;3.02;63.09;99926.34;110462;1265;21987;-81
2023/01/31 05:09:02;;;;;;;10.70;4.10;;;;;;;2.98;63.22;99932.23;110362;1265;22069;-82
2023/01/31 05:11:46;;;;;;;19.30;4.20;;;;;;;2.96;63.14;99937.77;110464;1264;21998;-81
2023/01/31 05:14:20;;;;;;;18.80;4.80;;;;;;;2.95;63.16;99945.17;110502;1261;24291;-80
2023/01/31 05:16:52;;;;;;;17.60;5.00;;;;;;;2.94;63.17;99951.02;111099;1256;23619;-82
2023/01/31 05:19:23;;;;;;;17.20;5.80;;;;;;;2.96;63.08;99953.08;111345;1256;22022;-83
2023/01/31 05:22:17;;;;;;;17.70;4.70;;;;;;;2.96;63.09;99957.19;111346;1256;22026;-83
2023/01/31 05:24:58;;;;;;;11.10;3.90;;;;;;;2.95;63.09;99961.16;111052;1260;21994;-81
2023/01/31 05:27:54;;;;;;;8.80;3.60;;;;;;;2.97;63.11;99968.70;110806;1261;22966;-81
2023/01/31 05:30:32;;;;;;;12.10;3.70;;;;;;;3.00;63.07;99977.27;110799;1256;21969;-83
2023/01/31 05:33:07;;;;;;;15.60;4.80;;;;;;;3.02;63.10;99976.20;111012;1260;22088;-81
2023/01/31 05:35:41;;;;;;;12.20;4.20;;;;;;;3.04;63.01;99982.89;110494;1266;23609;-81
2023/01/31 05:38:27;;;;;;;16.70;4.70;;;;;;;3.05;62.96;99985.10;110468;1266;23714;-81
2023/01/31 05:41:10;;;;;;;24.70;4.80;;;;;;;3.01;62.77;99994.09;110463;1266;21985;-80
2023/01/31 05:43:50;;;;;;;12.50;4.00;;;;;;;2.99;62.71;100005.98;110798;1261;21991;-81
2023/01/31 05:46:21;;;;;;;12.20;4.90;;;;;;;2.97;62.68;100011.67;110529;1264;21955;-80
2023/01/31 05:48:51;;;;;;;14.10;5.50;;;;;;;2.95;62.63;100011.70;110363;1266;21949;-79
2023/01/31 05:51:21;;;;;;;17.40;6.00;;;;;;;2.95;62.67;100015.83;109917;1271;21991;-79
2023/01/31 05:53:56;;;;;;;19.00;7.10;;;;;;;2.96;62.65;100018.39;109881;1270;22742;-80
2023/01/31 05:56:29;;;;;;;25.40;9.70;;;;;;;2.97;62.63;100022.67;109813;1270;22004;-80
2023/01/31 05:59:02;;;;;;;15.50;7.20;;;;;;;2.99;62.54;100027.98;109688;1271;21988;-81
2023/01/31 06:01:45;;;;;;;19.30;7.90;;;;;;;2.99;62.54;100034.35;110186;1267;22007;-80
2023/01/31 06:04:23;;;;;;;22.40;9.30;;;;;;;2.97;62.45;100035.23;110262;1261;23654;-80
2023/01/31 06:06:54;;;;;;;25.50;9.50;;;;;;;2.97;62.52;100040.56;111087;1260;23026;-81
2023/01/31 06:09:24;;;;;;;18.50;7.60;;;;;;;3.00;62.56;100042.59;111146;1255;21943;-81
2023/01/31 06:12:19;;;;;;;17.00;7.60;;;;;;;3.01;62.53;100042.59;111306;1255;21971;-82
2023/01/31 06:14:58;;;;;;;21.80;8.30;;;;;;;2.99;62.56;100048.61;111184;1255;22240;-82
2023/01/31 06:17:36;;;;;;;17.50;5.80;;;;;;;2.98;62.60;100052.76;111304;1252;21944;-81
2023/01/31 06:20:18;;;;;;;19.40;6.40;;;;;;;2.97;62.68;100056.71;111123;1254;21983;-81
2023/01/31 06:22:50;;;;;;;22.10;6.10;;;;;;;2.96;62.66;100058.63;111255;1255;22243;-83
2023/01/31 06:25:32;;;;;;;21.40;6.30;;;;;;;2.95;62.68;100060.70;111181;1254;23132;-81
2023/01/31 06:28:08;;;;;;;24.50;6.80;;;;;;;2.95;62.82;100063.79;110670;1265;22209;-81
2023/01/31 06:30:38;;;;;;;29.40;6.90;;;;;;;2.94;62.86;100061.73;110183;1265;22255;-80
2023/01/31 06:33:12;;;;;;;20.30;5.90;;;;;;;2.95;62.78;100064.13;110004;1269;21995;-81
2023/01/31 06:35:42;;;;;;;16.60;6.40;;;;;;;2.97;62.97;100067.88;109769;1270;22043;-81
2023/01/31 06:38:15;;;;;;;21.40;7.70;;;;;;;2.99;63.05;100067.68;109951;1267;22022;-82
2023/01/31 06:40:58;;;;;;;22.60;6.70;;;;;;;2.99;62.99;100069.06;109452;1272;22006;-81
2023/01/31 06:43:35;;;;;;;15.80;6.70;;;;;;;2.95;63.14;100072.38;109524;1270;21984;-82
2023/01/31 06:46:06;;;;;;;21.20;8.10;;;;;;;2.95;63.24;100069.12;109622;1272;23074;-81
2023/01/31 06:48:47;;;;;;;22.60;9.80;;;;;;;2.96;63.35;100067.05;109603;1272;22030;-82
2023/01/31 06:51:24;;;;;;;21.40;9.60;;;;;;;2.95;63.50;100072.73;109892;1268;21979;-82
2023/01/31 06:53:59;;;;;;;20.50;7.50;;;;;;;2.96;63.55;100073.56;110492;1261;22003;-80
2023/01/31 06:56:52;;;;;;;18.70;8.10;;;;;;;2.94;63.60;100077.89;110731;1261;23032;-81
2023/01/31 06:59:25;;;;;;;20.00;6.10;;;;;;;2.94;63.57;100087.69;111095;1256;21985;-81
2023/01/31 07:01:56;;;;;;;22.50;7.50;;;;;;;2.96;63.70;100090.58;111184;1256;21960;-80
2023/01/31 07:04:26;;;;;;;20.10;7.60;;;;;;;3.00;63.68;100095.54;111112;1256;21966;-81
2023/01/31 07:07:02;;;;;;;21.40;7.00;;;;;;;3.01;63.60;100095.52;111101;1256;21974;-81
2023/01/31 07:09:33;;;;;;;18.10;6.70;;;;;;;3.02;63.68;100103.59;111173;1256;22403;-80
2023/01/31 07:12:05;;;;;;;20.30;6.80;;;;;;;3.03;63.68;100108.74;110954;1257;22044;-79
2023/01/31 07:14:36;;;;;;;14.90;6.20;;;;;;;3.04;63.72;100110.80;110391;1261;23029;-80
2023/01/31 07:17:07;;;;;;;27.60;7.80;;;;;;;3.07;63.77;100114.02;110888;1261;22106;-78
2023/01/31 07:19:38;;;;;;;22.40;7.40;;;;;;;3.10;63.67;100115.37;110664;1260;23677;-78
2023/01/31 07:22:08;;;;;;;22.40;7.30;;;;;;;3.13;63.68;100120.14;110721;1261;22965;-77
2023/01/31 07:24:38;;;;;;;20.20;6.80;;;;;;;3.12;63.61;100128.23;110709;1261;23699;-75
2023/01/31 07:27:14;;;;;;;23.00;7.90;;;;;;;3.10;63.44;100136.68;110226;1267;21990;-78
2023/01/31 07:29:45;;;;;;;21.50;8.40;;;;;;;3.14;63.92;100143.69;110250;1267;23106;-78
2023/01/31 07:32:15;;;;;;;22.80;8.40;;;;;;;3.26;64.04;100146.48;110124;1267;21977;-78
2023/01/31 07:34:45;;;;;;;22.00;7.80;;;;;;;3.37;63.96;100152.73;110231;1266;22986;-79
2023/01/31 07:37:19;;;;;;;22.90;8.50;;;;;;;3.46;63.87;100154.85;110163;1263;21974;-78
2023/01/31 07:39:49;;;;;;;23.00;9.20;;;;;;;3.57;63.84;100159.03;110640;1263;23596;-80
2023/01/31 07:42:20;;;;;;;21.60;8.80;;;;;;;3.64;63.61;100164.11;110739;1263;23611;-79
2023/01/31 07:44:53;;;;;;;19.60;8.50;;;;;;;3.67;63.21;100168.89;110379;1255;21961;-79
2023/01/31 07:47:26;;;;;;;18.30;7.30;;;;;;;3.63;62.90;100169.11;111087;1256;22115;-79
2023/01/31 07:50:02;;;;;;;19.60;6.50;;;;;;;3.56;62.80;100175.39;110650;1262;22228;-78
2023/01/31 07:52:38;;;;;;;22.10;7.60;;;;;;;3.51;62.79;100175.27;110432;1264;21969;-80
2023/01/31 07:55:14;;;;;;;19.20;8.20;;;;;;;3.46;62.82;100172.74;110571;1263;22034;-78
2023/01/31 07:57:54;;;;;;;21.30;9.50;;;;;;;3.42;62.87;100170.04;110115;1267;23602;-79
2023/01/31 08:03:35;;;;;;;33.50;13.80;;;;;;;3.36;62.91;100173.38;110136;1267;22053;-79
2023/01/31 08:06:10;;;;;;;20.20;8.20;;;;;;;3.34;62.93;100171.52;109440;1270;23626;-79
2023/01/31 08:08:50;;;;;;;22.50;9.30;;;;;;;3.32;62.95;100177.04;109378;1272;22312;-79
2023/01/31 08:11:22;;;;;;;19.40;10.00;;;;;;;3.33;62.99;100176.70;109476;1272;23071;-79
2023/01/31 08:13:54;;;;;;;22.40;10.80;;;;;;;3.36;63.05;100174.92;109654;1272;22020;-80
2023/01/31 08:16:24;;;;;;;26.30;12.40;;;;;;;3.39;62.95;100179.70;109713;1272;23646;-81
2023/01/31 08:18:56;;;;;;;33.10;12.40;;;;;;;3.43;63.03;100176.05;109603;1265;21986;-80
2023/01/31 08:21:33;;;;;;;24.30;10.40;;;;;;;3.48;63.07;100178.41;109486;1267;21988;-80
2023/01/31 08:24:29;;;;;;;;;;;;;;;;;;;;;
2023/01/31 08:27:25;;;;;;;24.10;10.70;;;;;;;3.55;62.96;100187.79;109749;1270;23068;-77
2023/01/31 08:30:05;;;;;;;22.50;9.40;;;;;;;3.59;62.87;100189.12;109344;1273;21999;-79
2023/01/31 08:32:56;;;;;;;39.40;16.20;;;;;;;3.62;62.61;100191.67;109203;1269;21982;-78
2023/01/31 08:35:52;;;;;;;35.40;16.10;;;;;;;3.60;62.42;100194.10;109958;1269;21980;-78
2023/01/31 08:38:31;;;;;;;20.60;8.50;;;;;;;3.62;62.55;100197.52;109648;1269;23717;-80
2023/01/31 08:41:36;;;;;;;21.10;10.60;;;;;;;3.66;62.54;100203.84;109697;1269;22564;-79
2023/01/31 08:44:20;;;;;;;25.50;10.80;;;;;;;3.70;62.52;100204.84;110171;1268;22014;-78
2023/01/31 08:47:47;;;;;;;19.10;9.30;;;;;;;3.72;62.14;100205.14;110370;1261;23126;-78
2023/01/31 08:50:32;;;;;;;20.40;7.70;;;;;;;3.68;61.93;100211.73;110295;1265;21963;-79
2023/01/31 08:53:17;;;;;;;24.90;9.50;;;;;;;3.66;61.88;100214.69;110304;1265;21970;-79
2023/01/31 08:56:00;;;;;;;22.60;11.60;;;;;;;3.66;62.04;100213.64;110002;1267;23097;-79
2023/01/31 08:58:46;;;;;;;21.80;9.70;;;;;;;3.68;61.81;100218.61;109886;1269;23672;-78
2023/01/31 09:01:35;;;;;;;23.80;10.90;;;;;;;3.67;61.81;100221.73;109470;1273;21969;-79
2023/01/31 09:04:11;;;;;;;25.30;11.80;;;;;;;3.72;61.83;100229.94;109709;1270;23611;-78
2023/01/31 09:06:54;;;;;;;26.40;13.70;;;;;;;3.77;61.67;100232.62;109721;1270;21981;-79
2023/01/31 09:09:32;;;;;;;22.30;13.40;;;;;;;3.79;61.49;100236.55;109879;1265;21970;-79
2023/01/31 09:12:11;;;;;;;16.90;9.50;;;;;;;3.84;61.61;100240.80;110145;1265;22044;-78
2023/01/31 09:14:50;;;;;;;20.40;9.60;;;;;;;3.90;61.47;100241.75;109792;1268;23720;-78
2023/01/31 09:17:26;;;;;;;24.90;10.80;;;;;;;3.93;61.28;100244.13;110334;1267;23020;-79
2023/01/31 09:20:09;;;;;;;19.20;9.10;;;;;;;4.00;61.31;100244.23;110417;1259;21960;-79
2023/01/31 09:23:01;;;;;;;28.30;13.70;;;;;;;4.10;61.18;100244.28;110633;1263;23730;-78
2023/01/31 09:25:36;;;;;;;16.40;7.40;;;;;;;4.18;60.94;100246.74;110388;1263;21971;-79
2023/01/31 09:28:25;;;;;;;19.30;6.50;;;;;;;4.23;60.60;100245.66;110588;1263;23143;-79
2023/01/31 09:31:11;;;;;;;17.80;9.90;;;;;;;4.30;60.51;100245.21;110691;1263;21970;-79
2023/01/31 09:33:54;;;;;;;15.80;7.50;;;;;;;4.37;60.17;100244.60;111231;1256;21946;-77
2023/01/31 09:36:34;;;;;;;20.60;7.70;;;;;;;4.41;60.02;100247.47;111126;1257;21984;-79
2023/01/31 09:39:13;;;;;;;23.10;9.80;;;;;;;4.41;59.76;100249.89;111027;1257;23610;-80
2023/01/31 09:42:00;;;;;;;20.80;11.00;;;;;;;4.42;59.86;100248.33;111171;1257;23037;-78
2023/01/31 09:45:05;;;;;;;23.20;8.90;;;;;;;4.46;59.85;100251.70;110803;1257;21974;-78
2023/01/31 09:47:59;;;;;;;20.10;9.60;;;;;;;4.41;59.45;100248.85;110490;1263;22729;-77
2023/01/31 09:51:00;;;;;;;;;;;;;;;;;;;;;
2023/01/31 09:53:56;;;;;;;;;;;;;;;;;;;;;
2023/01/31 09:56:47;;;;;;;;;;;;;;;4.35;59.66;100247.91;110390;1263;23699;-77
2023/01/31 10:00:24;;;;;;;20.90;9.00;;;;;;;4.27;59.79;100242.66;110440;1258;23624;-78
2023/01/31 10:03:17;;;;;;;20.20;8.20;;;;;;;4.40;60.36;100237.32;110103;1267;22547;-77
2023/01/31 10:06:10;;;;;;;16.50;8.30;;;;;;;4.58;60.28;100235.50;110021;1263;22274;-77
2023/01/31 10:09:03;;;;;;;22.40;11.00;;;;;;;4.74;60.32;100233.02;110543;1263;22264;-77
2023/01/31 10:12:45;;;;;;;17.60;8.00;;;;;;;5.00;60.06;100233.48;110563;1263;21963;-78
2023/01/31 10:15:41;;;;;;;17.10;5.80;;;;;;;5.04;59.13;100233.73;110416;1263;21979;-79
2023/01/31 10:18:31;;;;;;;16.10;5.10;;;;;;;4.95;58.72;100236.48;110585;1250;23049;-78
2023/01/31 10:21:24;;;;;;;17.50;8.60;;;;;;;4.86;58.64;100235.06;110466;1263;22451;-80
2023/01/31 10:24:33;;;;;;;19.70;9.40;;;;;;;4.86;58.77;100234.20;110494;1263;23066;-78
2023/01/31 10:28:09;;;;;;;14.70;6.70;;;;;;;4.96;58.74;100226.28;109135;1262;21976;-78
2023/01/31 10:31:47;;;;;;;15.40;6.40;;;;;;;5.00;58.73;100232.95;110052;1268;21978;-79
2023/01/31 10:34:30;;;;;;;16.50;6.80;;;;;;;5.02;58.35;100233.08;109285;1274;24080;-78
2023/01/31 10:37:18;;;;;;;14.80;5.90;;;;;;;4.99;58.11;100235.89;109397;1273;21997;-78
2023/01/31 10:40:04;;;;;;;16.40;8.60;;;;;;;4.98;58.03;100230.55;109280;1271;21997;-78
2023/01/31 10:42:53;;;;;;;13.60;4.50;;;;;;;5.09;58.41;100229.86;109666;1271;22056;-80
2023/01/31 10:45:37;;;;;;;18.30;7.00;;;;;;;5.33;58.55;100225.13;109378;1273;23065;-78
2023/01/31 10:48:32;;;;;;;16.80;8.30;;;;;;;5.55;58.17;100223.66;109452;1269;22477;-78
2023/01/31 10:51:33;;;;;;;14.10;6.40;;;;;;;5.68;57.69;100219.80;109750;1268;22193;-79
2023/01/31 10:54:30;;;;;;;16.90;7.50;;;;;;;5.89;57.17;100217.48;109890;1268;21985;-79
2023/01/31 10:57:04;;;;;;;13.70;6.10;;;;;;;6.12;56.79;100216.86;110167;1268;21984;-78
2023/01/31 10:59:47;;;;;;;17.30;5.50;;;;;;;6.28;56.07;100213.23;109622;1272;23720;-77
2023/01/31 11:02:45;;;;;;;15.10;7.10;;;;;;;6.38;55.74;100214.38;109432;1272;22179;-79
2023/01/31 11:05:42;;;;;;;18.00;8.90;;;;;;;6.26;55.16;100206.87;110256;1265;21945;-79
2023/01/31 11:08:49;;;;;;;13.20;8.30;;;;;;;6.05;54.85;100202.84;110091;1261;23443;-78
2023/01/31 11:14:35;;;;;;;15.90;4.80;;;;;;;5.79;55.21;100194.02;110834;1259;23015;-78
2023/01/31 11:17:21;;;;;;;20.70;8.30;;;;;;;5.70;55.23;100188.52;110974;1253;23021;-79
2023/01/31 11:19:59;;;;;;;21.90;7.80;;;;;;;5.60;55.24;100190.42;110950;1254;21962;-78
2023/01/31 11:22:45;;;;;;;20.40;9.10;;;;;;;5.52;55.44;100197.32;110999;1255;22760;-79
2023/01/31 11:25:28;;;;;;;15.90;6.30;;;;;;;5.51;55.76;100198.73;111202;1254;21949;-79
2023/01/31 11:28:26;;;;;;;15.10;7.80;;;;;;;5.42;55.52;100194.23;110962;1255;21970;-78
2023/01/31 11:31:41;;;;;;;11.60;5.30;;;;;;;5.21;55.61;100192.21;110623;1262;21972;-79
2023/01/31 11:34:29;;;;;;;16.30;8.40;;;;;;;5.04;55.87;100185.97;110713;1262;23731;-79
2023/01/31 11:37:18;;;;;;;16.40;7.70;;;;;;;4.96;56.09;100182.48;109944;1266;21971;-78
2023/01/31 11:39:59;;;;;;;;;;;;;;;4.91;56.36;100177.91;109975;1265;21969;-78
2023/01/31 11:42:54;;;;;;;19.00;6.80;;;;;;;4.79;56.75;100168.80;110046;1266;23599;-80
2023/01/31 11:45:50;;;;;;;16.60;7.50;;;;;;;4.79;57.05;100162.77;109112;1272;21968;-77
2023/01/31 11:48:39;;;;;;;9.90;5.10;;;;;;;4.81;57.08;100161.02;109358;1268;23111;-77
2023/01/31 11:51:47;;;;;;;13.20;5.50;;;;;;;4.81;57.02;100164.27;109805;1267;22077;-79
2023/01/31 11:54:32;;;;;;;12.40;5.00;;;;;;;4.84;57.16;100166.48;109309;1273;21999;-80
2023/01/31 11:57:35;;;;;;;18.70;5.90;;;;;;;4.88;57.22;100164.17;109091;1275;22030;-79
2023/01/31 12:00:54;;;;;;;16.30;6.30;;;;;;;4.89;57.16;100162.41;109358;1276;22027;-80
2023/01/31 12:03:58;;;;;;;19.70;7.80;;;;;;;4.86;57.25;100157.98;109136;1274;21986;-77
2023/01/31 12:06:48;;;;;;;19.90;8.10;;;;;;;4.88;57.40;100153.98;109501;1274;21992;-78
2023/01/31 12:09:42;;;;;;;21.40;9.20;;;;;;;4.94;57.24;100153.89;109308;1272;23085;-78
2023/01/31 12:12:30;;;;;;;18.40;7.50;;;;;;;4.94;57.36;100151.13;109043;1273;23732;-80
2023/01/31 12:15:22;;;;;;;23.40;9.90;;;;;;;4.92;57.29;100146.33;109541;1270;24083;-80
2023/01/31 12:18:14;;;;;;;19.20;8.20;;;;;;;4.94;57.58;100137.00;109905;1270;23030;-78
2023/01/31 12:21:14;;;;;;;21.30;9.60;;;;;;;5.02;57.78;100128.39;109924;1270;22006;-81
2023/01/31 12:24:32;;;;;;;20.30;7.50;;;;;;;5.09;57.67;100129.30;109886;1262;22006;-82
2023/01/31 12:27:29;;;;;;;19.90;9.30;;;;;;;5.07;57.55;100131.23;109304;1276;22497;-79
2023/01/31 12:30:39;;;;;;;21.60;9.00;;;;;;;5.06;57.79;100134.86;109167;1270;21971;-80
2023/01/31 12:34:02;;;;;;;17.10;7.50;;;;;;;5.04;57.96;100130.41;109410;1276;23847;-80
2023/01/31 12:37:02;;;;;;;22.20;9.80;;;;;;;5.00;58.16;100129.11;108713;1282;22018;-80
2023/01/31 12:39:58;;;;;;;25.40;13.30;;;;;;;4.98;58.17;100121.56;108990;1273;22264;-80
2023/01/31 12:42:57;;;;;;;23.70;10.10;;;;;;;4.98;58.28;100112.59;109682;1270;22000;-78
2023/01/31 12:46:10;;;;;;;23.90;8.90;;;;;;;4.95;58.22;100109.02;109900;1265;23643;-81
2023/01/31 12:49:37;;;;;;;21.70;10.10;;;;;;;4.91;58.43;100112.37;110613;1265;24448;-81
2023/01/31 12:52:22;;;;;;;23.70;12.20;;;;;;;4.90;58.58;100118.61;110724;1252;22194;-80
2023/01/31 12:55:41;;;;;;;22.80;10.30;;;;;;;4.88;58.64;100118.99;109918;1268;22000;-78
2023/01/31 12:58:40;;;;;;;24.90;8.30;;;;;;;4.85;58.87;100121.13;109802;1269;21978;-82
2023/01/31 13:02:02;;;;;;;15.50;7.20;;;;;;;4.81;58.98;100118.77;109967;1269;22033;-83
2023/01/31 13:05:21;;;;;;;21.60;8.90;;;;;;;4.77;59.21;100112.27;109370;1275;22042;-84
2023/01/31 13:08:20;;;;;;;18.00;7.30;;;;;;;4.71;59.14;100106.88;109323;1273;23055;-82
2023/01/31 13:11:15;;;;;;;24.90;8.50;;;;;;;4.68;59.55;100103.14;109257;1276;24079;-81
2023/01/31 13:14:35;;;;;;;29.80;11.70;;;;;;;4.68;59.82;100097.95;110582;1265;21942;-82
2023/01/31 13:17:25;;;;;;;46.30;20.40;;;;;;;4.68;59.85;100091.26;109869;1265;22018;-83
2023/01/31 13:20:41;;;;;;;31.70;13.70;;;;;;;4.66;60.01;100084.91;109910;1270;22033;-83
2023/01/31 13:23:31;;;;;;;34.50;13.30;;;;;;;4.65;60.23;100078.37;110145;1270;21977;-82
2023/01/31 13:26:19;;;;;;;37.00;16.50;;;;;;;4.66;60.38;100074.55;109929;1269;21988;-84
2023/01/31 13:29:30;;;;;;;41.30;19.30;;;;;;;4.68;60.46;100072.62;110069;1270;22995;-83
2023/01/31 13:33:05;;;;;;;32.50;14.60;;;;;;;4.68;60.61;100067.30;109864;1270;23712;-84
2023/01/31 13:35:50;;;;;;;81.30;43.70;;;;;;;4.62;60.88;100058.77;109468;1275;22525;-83
2023/01/31 13:38:54;;;;;;;175.60;102.10;;;;;;;4.61;61.06;100057.77;109468;1275;21985;-83
2023/01/31 13:41:39;;;;;;;113.00;67.40;;;;;;;4.62;61.23;100054.13;109721;1270;21994;-83
2023/01/31 13:44:23;;;;;;;66.60;39.80;;;;;;;4.64;61.53;100052.86;109638;1270;22080;-83
2023/01/31 13:47:30;;;;;;;37.50;17.80;;;;;;;4.72;61.67;100053.77;109776;1270;22749;-81
2023/01/31 13:50:30;;;;;;;33.50;15.60;;;;;;;4.76;61.71;100049.89;109788;1265;22740;-83
2023/01/31 13:53:35;;;;;;;35.90;16.00;;;;;;;4.77;61.86;100040.59;109357;1271;21956;-82
2023/01/31 13:56:31;;;;;;;21.70;12.10;;;;;;;4.81;61.99;100043.42;109660;1270;23046;-84